Time;durP1;ratioP1;P1;durP2;ratioP2;P2;SDS_P1;SDS_P2;PMS_P1;PMS_P2;Temp;Humidity;BMP_temperature;BMP_pressure;BME280_temperature;BME280_humidity;BME280_pressure;Samples;Min_cycle;Max_cycle;Signal;HPM_P1;HPM_P2
2022/03/14 00:00:33;;;;;;;64.75;29.40;;;;;;;0.56;43.70;101805.47;1688774;83;20997;-60
2022/03/14 00:03:02;;;;;;;66.25;29.92;;;;;;;0.52;43.64;101803.52;1683024;83;21188;-58
2022/03/14 00:05:31;;;;;;;54.98;26.20;;;;;;;0.47;43.81;101810.19;1654348;85;21366;-58
2022/03/14 00:08:00;;;;;;;56.75;25.92;;;;;;;0.56;43.82;101816.56;1664706;84;21551;-58
2022/03/14 00:10:28;;;;;;;62.05;27.48;;;;;;;0.54;44.25;101813.72;1646276;85;21014;-60
2022/03/14 00:12:58;;;;;;;71.40;33.40;;;;;;;0.52;44.23;101812.50;1648145;86;21117;-58
2022/03/14 00:15:31;;;;;;;74.58;32.13;;;;;;;0.32;44.47;101813.53;1649851;84;21108;-57
2022/03/14 00:18:00;;;;;;;77.25;36.48;;;;;;;0.36;44.47;101809.08;1660637;84;21884;-61
2022/03/14 00:20:28;;;;;;;73.65;31.40;;;;;;;0.41;44.47;101804.53;1647662;86;21148;-59
2022/03/14 00:22:59;;;;;;;71.35;33.25;;;;;;;0.22;44.74;101805.47;1648041;86;21038;-57
2022/03/14 00:25:26;;;;;;;71.67;30.27;;;;;;;-0.03;44.70;101808.91;1657849;84;21065;-56
2022/03/14 00:27:56;;;;;;;64.65;30.52;;;;;;;-0.10;44.56;101813.51;1647704;86;21614;-59
2022/03/14 00:30:24;;;;;;;75.75;34.85;;;;;;;-0.26;44.62;101819.02;1648111;84;21350;-60
2022/03/14 00:32:52;;;;;;;68.52;30.72;;;;;;;-0.30;44.77;101814.95;1647982;86;21097;-59
2022/03/14 00:35:21;;;;;;;65.50;29.82;;;;;;;-0.27;44.80;101819.45;1648047;85;21069;-58
2022/03/14 00:37:48;;;;;;;53.48;25.52;;;;;;;-0.33;44.88;101822.78;1656921;86;21544;-58
2022/03/14 00:40:16;;;;;;;52.43;25.62;;;;;;;-0.31;44.96;101823.52;1657296;86;21116;-59
2022/03/14 00:42:48;;;;;;;52.10;24.40;;;;;;;-0.37;45.23;101827.67;1648224;85;21267;-58
2022/03/14 00:45:14;;;;;;;45.08;22.90;;;;;;;-0.40;45.30;101823.52;1661448;84;21002;-59
2022/03/14 00:47:42;;;;;;;45.30;22.82;;;;;;;-0.29;45.28;101822.55;1657164;85;21021;-61
2022/03/14 00:50:09;;;;;;;35.70;17.75;;;;;;;-0.02;45.35;101815.23;1658015;84;21120;-61
2022/03/14 00:52:37;;;;;;;35.90;17.27;;;;;;;0.11;45.31;101820.56;1629319;86;20968;-59
2022/03/14 00:55:06;;;;;;;29.80;14.40;;;;;;;-0.11;45.74;101824.67;1648097;85;21324;-59
2022/03/14 00:57:33;;;;;;;38.83;20.20;;;;;;;-0.14;46.04;101826.10;1648425;86;21543;-61
2022/03/14 01:00:02;;;;;;;32.05;15.88;;;;;;;0.09;46.28;101824.13;1664060;84;21045;-59
2022/03/14 01:02:31;;;;;;;33.88;17.05;;;;;;;0.05;46.39;101826.48;1628687;86;21074;-57
2022/03/14 01:04:59;;;;;;;46.30;22.55;;;;;;;0.16;45.98;101826.77;1655221;84;22309;-56
2022/03/14 01:07:26;;;;;;;46.92;21.57;;;;;;;0.03;45.82;101823.97;1654405;86;21255;-60
2022/03/14 01:09:54;;;;;;;42.25;21.12;;;;;;;-0.11;45.66;101822.57;1653636;86;22398;-59
2022/03/14 01:12:21;;;;;;;43.95;21.97;;;;;;;-0.15;45.48;101824.45;1631113;86;21034;-60
2022/03/14 01:14:49;;;;;;;38.63;21.12;;;;;;;-0.19;45.42;101827.22;1653831;86;21134;-57
2022/03/14 01:17:17;;;;;;;43.68;21.27;;;;;;;-0.27;46.05;101832.26;1654569;86;21584;-57
2022/03/14 01:19:46;;;;;;;36.83;19.23;;;;;;;-0.19;46.09;101832.34;1621814;88;21291;-61
2022/03/14 01:22:14;;;;;;;40.45;20.80;;;;;;;-0.20;46.23;101835.36;1621984;88;21111;-59
2022/03/14 01:24:43;;;;;;;38.83;20.17;;;;;;;-0.19;46.35;101832.34;1653877;86;21018;-57
2022/03/14 01:27:11;;;;;;;44.65;19.05;;;;;;;-0.29;46.09;101839.66;1659322;86;21007;-58
2022/03/14 01:29:38;;;;;;;46.02;20.77;;;;;;;-0.53;46.85;101839.08;1621919;88;20990;-60
2022/03/14 01:32:07;;;;;;;93.07;34.65;;;;;;;-0.36;46.75;101842.96;1654307;86;21250;-59
2022/03/14 01:34:34;;;;;;;55.52;25.82;;;;;;;-0.21;46.56;101840.57;1653991;86;21011;-58
2022/03/14 01:37:02;;;;;;;38.48;19.23;;;;;;;-0.28;46.27;101842.59;1654328;86;21172;-58
2022/03/14 01:39:29;;;;;;;40.88;18.37;;;;;;;-0.15;45.82;101842.39;1654405;86;21051;-58
2022/03/14 01:41:57;;;;;;;39.67;17.62;;;;;;;-0.32;45.53;101843.19;1626697;87;21162;-58
2022/03/14 01:44:25;;;;;;;34.58;18.32;;;;;;;-0.50;45.72;101840.22;1654533;85;21899;-59
2022/03/14 01:46:53;;;;;;;31.73;15.60;;;;;;;-0.43;46.24;101840.31;1654579;86;21177;-57
2022/03/14 01:49:20;;;;;;;25.43;14.93;;;;;;;-0.35;46.10;101843.33;1655005;86;21543;-59
2022/03/14 01:51:48;;;;;;;24.85;14.03;;;;;;;-0.11;45.32;101836.66;1625561;86;21233;-58
2022/03/14 01:54:16;;;;;;;25.45;13.05;;;;;;;-0.22;45.07;101838.92;1654578;84;22389;-59
2022/03/14 01:56:44;;;;;;;21.27;10.98;;;;;;;-0.74;45.58;101846.05;1625813;88;21328;-57
2022/03/14 01:59:11;;;;;;;18.70;10.65;;;;;;;-0.51;45.42;101839.84;1654587;86;21226;-59
2022/03/14 02:01:39;;;;;;;21.25;11.38;;;;;;;-0.65;45.53;101840.48;1654321;86;21081;-59
2022/03/14 02:04:08;;;;;;;24.82;13.03;;;;;;;-0.86;45.85;101838.48;1621838;88;21117;-57
2022/03/14 02:06:40;;;;;;;24.02;11.30;;;;;;;-0.85;46.16;101843.16;1592353;88;21048;-58
2022/03/14 02:09:04;;;;;;;24.45;12.03;;;;;;;-0.82;46.03;101843.84;1593474;88;22352;-58
2022/03/14 02:11:33;;;;;;;24.67;11.95;;;;;;;-0.58;45.79;101842.31;1598872;88;21058;-58
2022/03/14 02:14:03;;;;;;;21.17;11.03;;;;;;;-0.50;45.55;101843.61;1595020;89;21527;-59
2022/03/14 02:16:32;;;;;;;19.77;9.75;;;;;;;-0.36;45.38;101844.24;1622140;87;21077;-59
2022/03/14 02:19:00;;;;;;;15.95;8.73;;;;;;;-0.37;45.50;101848.17;1622154;87;21072;-57
2022/03/14 02:21:28;;;;;;;16.45;8.50;;;;;;;-0.25;45.30;101847.13;1621731;86;21283;-59
2022/03/14 02:23:55;;;;;;;18.73;10.23;;;;;;;-0.16;45.07;101851.42;1621960;87;21733;-58
2022/03/14 02:26:22;;;;;;;19.80;10.18;;;;;;;-0.31;45.22;101853.81;1621951;86;21382;-58
2022/03/14 02:28:51;;;;;;;19.98;9.78;;;;;;;-0.31;45.30;101851.25;1622190;87;21128;-57
2022/03/14 02:31:18;;;;;;;20.77;9.93;;;;;;;-0.28;45.39;101851.56;1630207;86;21093;-57
2022/03/14 02:33:45;;;;;;;21.00;9.13;;;;;;;-0.40;45.79;101850.42;1632554;86;22123;-60
2022/03/14 02:36:12;;;;;;;14.68;8.40;;;;;;;-0.37;45.77;101850.28;1631462;86;21048;-61
2022/03/14 02:38:41;;;;;;;17.12;9.30;;;;;;;-0.34;45.34;101858.25;1621703;88;21160;-57
2022/03/14 02:41:10;;;;;;;20.65;10.20;;;;;;;-0.35;45.09;101856.59;1620461;86;21041;-60
2022/03/14 02:43:37;;;;;;;17.70;10.40;;;;;;;-0.32;44.98;101859.02;1621819;87;21175;-56
2022/03/14 02:46:04;;;;;;;19.95;10.30;;;;;;;-0.34;44.86;101856.55;1621945;87;21867;-57
2022/03/14 02:48:32;;;;;;;23.50;10.25;;;;;;;-0.39;44.82;101857.19;1621460;87;21606;-57
2022/03/14 02:51:00;;;;;;;18.73;9.53;;;;;;;-0.72;45.38;101872.85;1624435;86;21605;-59
2022/03/14 02:53:27;;;;;;;18.62;10.65;;;;;;;-0.73;45.42;101868.19;1621863;88;21178;-59
2022/03/14 02:55:55;;;;;;;19.00;9.63;;;;;;;-0.66;45.31;101869.56;1621732;87;21152;-59
2022/03/14 02:58:28;;;;;;;18.73;9.65;;;;;;;-0.79;45.30;101874.89;1611693;86;21302;-58
2022/03/14 03:00:55;;;;;;;19.85;9.25;;;;;;;-0.45;44.71;101868.20;1599059;88;21014;-60
2022/03/14 03:03:24;;;;;;;17.30;9.78;;;;;;;-0.56;44.56;101872.55;1589645;88;21073;-60
2022/03/14 03:05:52;;;;;;;17.42;9.00;;;;;;;-0.43;44.48;101862.55;1627115;86;21162;-59
2022/03/14 03:08:20;;;;;;;17.70;9.50;;;;;;;-0.26;44.13;101863.41;1600216;89;21043;-59
2022/03/14 03:10:47;;;;;;;18.17;9.90;;;;;;;-0.10;43.81;101863.48;1600202;88;21166;-58
2022/03/14 03:13:15;;;;;;;20.48;10.43;;;;;;;-0.07;43.61;101865.91;1662331;86;21125;-60
2022/03/14 03:15:42;;;;;;;18.70;9.38;;;;;;;-0.46;44.19;101870.36;1628186;88;21607;-58
2022/03/14 03:18:11;;;;;;;15.53;9.18;;;;;;;-0.37;44.29;101866.94;1662860;84;21010;-62
2022/03/14 03:20:39;;;;;;;14.45;8.13;;;;;;;-0.45;44.47;101870.31;1636368;86;22498;-60
2022/03/14 03:23:09;;;;;;;17.10;8.73;;;;;;;-0.55;44.65;101874.20;1662448;86;21056;-58
2022/03/14 03:25:36;;;;;;;17.82;9.25;;;;;;;-0.53;44.73;101870.67;1628322;86;21015;-60
2022/03/14 03:28:04;;;;;;;16.73;9.28;;;;;;;-0.69;45.01;101870.16;1628294;88;21150;-59
2022/03/14 03:30:32;;;;;;;20.15;8.28;;;;;;;-0.89;45.25;101871.90;1662330;84;21081;-60
2022/03/14 03:33:00;;;;;;;18.90;8.75;;;;;;;-0.88;45.42;101874.00;1667849;84;21151;-59
2022/03/14 03:35:29;;;;;;;19.35;9.33;;;;;;;-0.83;45.36;101871.63;1634001;86;21285;-58
2022/03/14 03:37:58;;;;;;;16.90;9.53;;;;;;;-0.67;45.18;101877.33;1660416;86;20949;-58
2022/03/14 03:40:26;;;;;;;20.55;9.80;;;;;;;-0.74;45.36;101872.48;1627076;86;21047;-59
2022/03/14 03:42:55;;;;;;;15.95;8.08;;;;;;;-0.70;45.34;101871.06;1628418;88;21595;-59
2022/03/14 03:45:22;;;;;;;17.40;9.50;;;;;;;-0.66;45.53;101867.00;1618108;88;21035;-59
2022/03/14 03:47:50;;;;;;;17.65;9.25;;;;;;;-0.64;45.69;101861.38;1663139;84;21993;-60
2022/03/14 03:50:18;;;;;;;16.10;7.92;;;;;;;-0.57;45.71;101859.34;1627132;88;21515;-59
2022/03/14 03:52:46;;;;;;;18.32;8.68;;;;;;;-0.42;45.42;101847.09;1662628;86;21076;-59
2022/03/14 03:55:14;;;;;;;14.80;7.87;;;;;;;-0.16;45.29;101846.30;1628315;86;21146;-59
2022/03/14 03:57:41;;;;;;;16.75;8.90;;;;;;;-0.09;45.10;101845.09;1627421;88;20932;-61
2022/03/14 04:00:29;;;;;;;16.80;8.18;;;;;;;-0.11;45.08;101839.23;1668367;81;21898;31
2022/03/14 04:02:56;;;;;;;14.07;8.43;;;;;;;0.09;44.77;101835.22;1704648;83;21458;-59
2022/03/14 04:05:26;;;;;;;16.60;8.70;;;;;;;0.35;44.79;101838.21;1682480;84;21061;-61
2022/03/14 04:07:57;;;;;;;13.45;7.80;;;;;;;0.87;44.91;101828.63;1691479;83;21026;-58
2022/03/14 04:10:27;;;;;;;16.12;7.70;;;;;;;1.23;45.10;101833.14;1681610;84;21128;-58
2022/03/14 04:12:52;;;;;;;15.45;8.70;;;;;;;2.01;44.70;101827.01;1692524;83;21224;-57
2022/03/14 04:15:23;;;;;;;13.48;7.53;;;;;;;2.95;43.78;101820.92;1680464;83;20934;-60
2022/03/14 04:17:50;;;;;;;11.38;7.25;;;;;;;3.59;42.37;101816.84;1691645;84;21623;-61
2022/03/14 04:20:21;;;;;;;14.07;8.00;;;;;;;3.88;41.42;101817.53;1695702;83;21591;-58
2022/03/14 04:22:46;;;;;;;12.53;7.80;;;;;;;4.42;41.41;101813.92;1692304;84;21066;-58
2022/03/14 04:25:13;;;;;;;12.82;7.22;;;;;;;5.02;41.69;101816.23;1697196;83;21239;-59
2022/03/14 04:27:42;;;;;;;11.55;6.37;;;;;;;5.91;41.50;101817.53;1690199;83;21153;-59
2022/03/14 04:30:10;;;;;;;13.05;6.97;;;;;;;6.30;40.82;101820.23;1688240;83;20892;-60
2022/03/14 04:32:38;;;;;;;13.68;7.87;;;;;;;7.91;39.63;101819.09;1700843;82;21104;-60
2022/03/14 04:35:07;;;;;;;11.63;6.55;;;;;;;9.06;38.50;101809.34;1691962;83;21775;-61
2022/03/14 04:37:34;;;;;;;10.43;6.15;;;;;;;9.07;38.13;101810.97;1694493;83;21342;-60
2022/03/14 04:40:02;;;;;;;12.78;6.60;;;;;;;9.95;37.21;101809.97;1689033;84;21077;-59
2022/03/14 04:42:30;;;;;;;13.03;7.62;;;;;;;10.82;35.70;101807.03;1692244;84;21507;-59
2022/03/14 04:44:58;;;;;;;12.58;7.60;;;;;;;11.70;34.02;101798.03;1708139;83;21100;-60
2022/03/14 04:47:26;;;;;;;12.47;7.83;;;;;;;12.14;33.77;101797.53;1694800;83;21005;-60
2022/03/14 04:49:53;;;;;;;12.20;6.95;;;;;;;12.58;32.89;101799.20;1696975;82;21457;-59
2022/03/14 04:52:21;;;;;;;13.28;8.18;;;;;;;13.00;32.08;101790.48;1696927;83;21007;-60
2022/03/14 04:54:49;;;;;;;10.80;6.63;;;;;;;14.48;29.88;101794.06;1698762;83;21159;-63
2022/03/14 04:57:17;;;;;;;13.60;9.30;;;;;;;14.87;28.94;101797.17;1691389;83;21267;-61
2022/03/14 04:59:44;;;;;;;16.63;10.60;;;;;;;15.11;27.83;101790.92;1697976;83;21996;-62
2022/03/14 05:02:12;;;;;;;17.07;10.83;;;;;;;15.31;26.97;101796.05;1716774;82;22477;-62
2022/03/14 05:04:39;;;;;;;17.70;11.57;;;;;;;15.27;26.92;101790.02;1704211;82;21238;-61
2022/03/14 05:07:07;;;;;;;14.33;9.57;;;;;;;14.94;27.15;101790.73;1716634;82;21165;-62
2022/03/14 05:09:36;;;;;;;21.73;13.27;;;;;;;14.51;27.23;101797.70;1701999;83;21387;-61
2022/03/14 05:12:04;;;;;;;17.43;11.17;;;;;;;13.44;27.96;101792.81;1713871;83;21703;-60
2022/03/14 05:14:32;;;;;;;15.90;9.18;;;;;;;13.80;28.00;101797.22;1666480;84;22489;-63
2022/03/14 05:16:59;;;;;;;13.35;9.48;;;;;;;13.31;28.02;101795.44;1698555;81;21535;-61
2022/03/14 05:19:27;;;;;;;13.72;9.18;;;;;;;12.76;28.54;101795.97;1681690;83;22389;-60
2022/03/14 05:21:54;;;;;;;14.05;9.80;;;;;;;12.26;28.98;101802.48;1735233;81;21010;-61
2022/03/14 05:24:21;;;;;;;16.27;9.85;;;;;;;11.78;29.27;101809.02;1733951;81;21080;-61
2022/03/14 05:26:52;;;;;;;14.50;9.48;;;;;;;11.18;29.86;101814.91;1725667;81;21735;-62
2022/03/14 05:29:20;;;;;;;16.55;10.00;;;;;;;10.86;30.09;101813.59;1734490;81;21071;-63
2022/03/14 05:31:48;;;;;;;16.12;10.08;;;;;;;10.41;30.42;101814.36;1727232;81;21050;-61
2022/03/14 05:34:15;;;;;;;14.50;8.93;;;;;;;9.99;31.00;101808.23;1732492;80;21011;-62
2022/03/14 05:36:45;;;;;;;14.40;8.78;;;;;;;9.94;31.34;101816.95;1739055;81;20919;-61
2022/03/14 05:39:12;;;;;;;14.47;9.60;;;;;;;9.74;31.93;101822.69;1729992;81;21289;-61
2022/03/14 05:41:39;;;;;;;13.30;8.83;;;;;;;9.68;32.26;101823.72;1706635;83;20987;-60
2022/03/14 05:44:06;;;;;;;12.90;8.13;;;;;;;9.74;32.51;101823.17;1659251;83;20994;-61
2022/03/14 05:46:34;;;;;;;13.35;8.43;;;;;;;9.77;32.74;101815.55;1730978;81;21594;-61
2022/03/14 05:49:01;;;;;;;14.20;8.40;;;;;;;10.20;32.39;101818.47;1729029;81;21159;-62
2022/03/14 05:51:29;;;;;;;15.95;9.83;;;;;;;10.08;32.52;101813.59;1734303;81;21219;-62
2022/03/14 05:53:57;;;;;;;14.18;9.25;;;;;;;10.06;32.58;101801.98;1721893;81;21017;-62
2022/03/14 05:56:25;;;;;;;12.25;8.38;;;;;;;10.13;32.73;101806.16;1697762;82;21013;-63
2022/03/14 05:58:53;;;;;;;15.35;9.10;;;;;;;10.37;32.51;101802.58;1733481;81;21691;-64
2022/03/14 06:01:22;;;;;;;14.43;8.80;;;;;;;10.38;32.75;101809.92;1732696;81;22380;-61
2022/03/14 06:03:50;;;;;;;13.85;8.35;;;;;;;10.43;32.80;101808.54;1719073;82;21223;-60
2022/03/14 06:06:17;;;;;;;14.70;8.48;;;;;;;10.54;32.68;101802.81;1703671;83;21132;-61
2022/03/14 06:08:45;;;;;;;12.95;8.00;;;;;;;10.80;32.31;101800.34;1725568;82;20978;-62
2022/03/14 06:11:13;;;;;;;13.60;8.38;;;;;;;11.05;31.97;101800.91;1722383;82;21021;-62
2022/03/14 06:13:40;;;;;;;11.40;7.37;;;;;;;11.10;31.84;101801.30;1729074;82;20983;-60
2022/03/14 06:16:07;;;;;;;11.40;7.65;;;;;;;11.24;32.16;101801.25;1697948;83;21278;-62
2022/03/14 06:18:36;;;;;;;13.38;8.33;;;;;;;12.22;31.25;101786.78;1715661;82;21542;-63
2022/03/14 06:21:04;;;;;;;14.65;8.45;;;;;;;12.80;30.68;101784.20;1718333;82;21154;-62
2022/03/14 06:23:31;;;;;;;13.40;8.37;;;;;;;13.57;30.14;101778.75;1695660;83;21085;-62
2022/03/14 06:25:59;;;;;;;12.90;7.90;;;;;;;14.40;29.53;101784.92;1726699;82;21866;-61
2022/03/14 06:28:27;;;;;;;13.63;8.33;;;;;;;15.44;28.62;101789.37;1726509;82;21249;-64
2022/03/14 06:30:55;;;;;;;12.80;9.20;;;;;;;16.42;27.32;101783.11;1702948;83;21197;-62
2022/03/14 06:33:23;;;;;;;13.63;8.37;;;;;;;16.98;27.00;101783.35;1723823;81;21923;-61
2022/03/14 06:35:51;;;;;;;11.43;8.23;;;;;;;17.55;25.85;101783.73;1707911;83;21719;-60
2022/03/14 06:38:19;;;;;;;13.10;8.53;;;;;;;18.31;25.20;101782.98;1722529;82;21512;-61
2022/03/14 06:40:47;;;;;;;11.03;8.33;;;;;;;18.82;24.20;101775.44;1701167;83;21377;-62
2022/03/14 06:43:17;;;;;;;12.67;9.13;;;;;;;18.20;24.63;101775.13;1719038;82;21096;-62
2022/03/14 06:45:46;;;;;;;11.73;7.67;;;;;;;19.17;23.62;101771.34;1719589;82;21016;-61
2022/03/14 06:48:13;;;;;;;10.03;7.27;;;;;;;19.16;23.62;101777.11;1703720;83;21125;-59
2022/03/14 06:50:41;;;;;;;8.90;7.00;;;;;;;19.54;22.95;101779.66;1726936;82;21026;-64
2022/03/14 06:53:08;;;;;;;10.60;7.63;;;;;;;21.05;21.78;101773.99;1705062;83;21291;-60
2022/03/14 06:55:37;;;;;;;9.63;7.07;;;;;;;21.28;21.21;101768.09;1718074;82;21025;-60
2022/03/14 06:58:06;;;;;;;10.63;7.23;;;;;;;21.98;20.54;101766.01;1702112;83;21035;-61
2022/03/14 07:00:34;;;;;;;9.30;6.97;;;;;;;22.06;19.97;101771.02;1711442;82;21066;-60
2022/03/14 07:03:01;;;;;;;9.83;7.53;;;;;;;22.17;19.47;101774.80;1711012;82;21168;-63
2022/03/14 07:05:28;;;;;;;9.57;7.47;;;;;;;22.04;18.91;101767.75;1685505;83;21221;-60
2022/03/14 07:07:57;;;;;;;10.17;7.33;;;;;;;21.78;18.80;101769.37;1695231;83;21016;-60
2022/03/14 07:10:25;;;;;;;10.10;7.63;;;;;;;20.97;19.47;101775.06;1673504;84;21038;-60
2022/03/14 07:12:54;;;;;;;8.70;6.53;;;;;;;20.71;19.69;101767.29;1670901;84;21033;-66
2022/03/14 07:15:22;;;;;;;7.97;6.10;;;;;;;20.83;19.82;101757.62;1675596;84;21018;-59
2022/03/14 07:17:53;;;;;;;6.93;5.67;;;;;;;21.14;19.42;101760.27;1672699;84;21990;-62
2022/03/14 07:20:20;;;;;;;7.90;5.90;;;;;;;21.10;19.16;101763.05;1683210;84;21141;-65
2022/03/14 07:23:00;;;;;;;6.70;5.20;;;;;;;20.97;19.23;101763.66;1669227;84;21339;-64
2022/03/14 07:25:32;;;;;;;8.33;5.43;;;;;;;21.14;18.93;101758.94;1677171;85;20951;-62
2022/03/14 07:28:02;;;;;;;8.10;5.67;;;;;;;20.59;19.37;101752.59;1687158;83;21047;-60
2022/03/14 07:30:31;;;;;;;7.23;5.97;;;;;;;20.97;19.26;101759.68;1693896;83;21104;-63
2022/03/14 07:32:59;;;;;;;8.10;5.17;;;;;;;21.58;18.60;101760.30;1693605;83;21137;-60
2022/03/14 07:35:27;;;;;;;8.23;5.73;;;;;;;21.67;18.70;101759.48;1695071;83;20998;-60
2022/03/14 07:37:54;;;;;;;7.80;5.73;;;;;;;21.99;18.35;101760.98;1689181;84;21449;-60
2022/03/14 07:40:22;;;;;;;6.47;4.93;;;;;;;22.03;18.69;101754.71;1677338;84;20955;-59
2022/03/14 07:42:51;;;;;;;7.60;5.50;;;;;;;22.04;18.56;101752.34;1694386;83;21091;-59
2022/03/14 07:45:24;;;;;;;8.47;6.23;;;;;;;22.02;18.00;101731.86;1694650;83;21030;-59
2022/03/14 07:47:55;;;;;;;8.03;6.27;;;;;;;21.43;17.99;101731.46;1694558;84;21061;-58
2022/03/14 07:50:24;;;;;;;8.87;6.90;;;;;;;20.57;18.42;101744.86;1683217;84;20895;-63
2022/03/14 07:52:53;;;;;;;8.13;6.17;;;;;;;19.49;19.13;101762.27;1694556;83;21131;-59
2022/03/14 07:55:20;;;;;;;10.03;7.00;;;;;;;19.78;19.32;101754.42;1695094;83;21485;-59
2022/03/14 07:57:47;;;;;;;9.53;8.00;;;;;;;20.05;19.14;101761.26;1695104;83;21539;-61
2022/03/14 08:00:19;;;;;;;11.30;8.03;;;;;;;19.74;19.25;101758.52;1694285;83;21599;-62
2022/03/14 08:02:47;;;;;;;9.50;7.23;;;;;;;19.72;19.68;101758.70;1693971;83;21133;-61
2022/03/14 08:05:16;;;;;;;10.60;8.00;;;;;;;19.91;19.86;101758.34;1690788;82;21027;-58
2022/03/14 08:07:46;;;;;;;9.73;8.20;;;;;;;19.57;20.04;101772.63;1694396;82;21045;-59
2022/03/14 08:10:17;;;;;;;10.07;7.70;;;;;;;19.44;20.27;101764.22;1642278;84;21687;-58
2022/03/14 08:12:55;;;;;;;10.80;8.13;;;;;;;20.24;19.78;101764.86;1694687;83;20986;-58
2022/03/14 08:15:26;;;;;;;9.80;7.20;;;;;;;19.27;20.53;101766.44;1663680;85;20978;-59
2022/03/14 08:17:57;;;;;;;9.40;6.10;;;;;;;19.17;21.23;101776.12;1695335;83;21491;-62
2022/03/14 08:20:27;;;;;;;8.33;6.40;;;;;;;19.13;21.52;101764.33;1697221;83;21133;-61
2022/03/14 08:22:58;;;;;;;8.60;6.23;;;;;;;19.42;21.35;101768.87;1696975;83;21074;-59
2022/03/14 08:25:27;;;;;;;9.57;6.37;;;;;;;20.54;20.45;101751.91;1726372;82;20942;-59
2022/03/14 08:27:55;;;;;;;8.60;6.80;;;;;;;21.09;19.95;101746.83;1687982;82;20915;-59
2022/03/14 08:30:22;;;;;;;6.93;5.73;;;;;;;20.94;20.09;101735.73;1715256;82;21812;-64
2022/03/14 08:32:51;;;;;;;11.53;8.37;;;;;;;21.14;20.01;101733.75;1695647;82;21630;-60
2022/03/14 08:35:20;;;;;;;7.20;5.13;;;;;;;21.29;19.78;101738.72;1697745;82;20942;-60
2022/03/14 08:37:49;;;;;;;8.73;5.70;;;;;;;21.35;19.38;101735.73;1667190;84;20999;-59
2022/03/14 08:40:20;;;;;;;7.20;5.50;;;;;;;21.41;19.23;101731.41;1696783;82;21528;-60
2022/03/14 08:42:47;;;;;;;8.05;5.72;;;;;;;21.68;19.13;101729.29;1666625;86;21014;-59
2022/03/14 08:45:15;;;;;;;11.17;7.40;;;;;;;21.77;19.27;101719.98;1696472;82;21129;-59
2022/03/14 08:47:42;;;;;;;9.23;6.67;;;;;;;21.75;18.81;101710.12;1666445;86;21564;-60
2022/03/14 08:50:11;;;;;;;8.17;5.43;;;;;;;21.60;19.42;101703.86;1695685;82;21046;-59
2022/03/14 08:52:39;;;;;;;8.63;6.00;;;;;;;20.83;19.56;101696.66;1688405;82;21018;-65
2022/03/14 08:55:07;;;;;;;8.07;6.13;;;;;;;21.71;19.01;101698.33;1696064;83;21101;-59
2022/03/14 08:57:34;;;;;;;8.63;6.90;;;;;;;21.68;19.03;101689.48;1695240;83;21315;-64
2022/03/14 09:00:01;;;;;;;8.20;5.53;;;;;;;21.76;19.17;101697.14;1694590;84;21558;-60
2022/03/14 09:02:29;;;;;;;7.87;5.80;;;;;;;21.98;19.09;101684.22;1665716;84;21078;-63
2022/03/14 09:04:56;;;;;;;7.83;5.83;;;;;;;22.11;18.83;101684.84;1695706;84;21393;-59
2022/03/14 09:07:27;;;;;;;7.67;4.90;;;;;;;21.94;18.47;101687.83;1697772;82;21032;-60
2022/03/14 09:09:55;;;;;;;8.63;5.85;;;;;;;21.82;18.40;101682.96;1661226;84;21687;-59
2022/03/14 09:12:22;;;;;;;8.73;6.50;;;;;;;21.45;18.79;101692.27;1715511;82;20985;-59
2022/03/14 09:14:50;;;;;;;8.20;5.50;;;;;;;21.69;19.06;101690.57;1720137;82;21503;-59
2022/03/14 09:17:17;;;;;;;9.43;5.67;;;;;;;21.82;19.30;101681.63;1695814;83;22200;-65
2022/03/14 09:19:45;;;;;;;8.00;6.00;;;;;;;21.92;19.29;101678.46;1696179;82;21558;-59
2022/03/14 09:22:12;;;;;;;9.70;5.63;;;;;;;22.12;19.26;101677.67;1666275;84;21451;-59
2022/03/14 09:24:40;;;;;;;8.57;6.07;;;;;;;21.73;19.38;101683.78;1695618;83;21629;-66
2022/03/14 09:27:07;;;;;;;8.90;5.87;;;;;;;21.55;19.67;101682.46;1647453;84;21109;-60
2022/03/14 09:29:35;;;;;;;9.07;6.40;;;;;;;21.32;19.63;101679.91;1693382;82;20954;-64
2022/03/14 09:32:04;;;;;;;9.50;6.00;;;;;;;20.94;19.90;101682.71;1690754;84;21133;-58
2022/03/14 09:34:32;;;;;;;9.47;5.87;;;;;;;20.16;20.28;101689.12;1666199;85;21231;-63
2022/03/14 09:36:59;;;;;;;8.60;6.40;;;;;;;19.63;20.95;101690.66;1694961;84;20995;-58
2022/03/14 09:39:26;;;;;;;13.57;6.80;;;;;;;19.51;21.07;101683.03;1666796;84;20880;-58
2022/03/14 09:41:54;;;;;;;8.97;6.00;;;;;;;18.87;21.59;101690.31;1695117;84;21004;-58
2022/03/14 09:44:21;;;;;;;8.67;6.20;;;;;;;18.67;22.33;101688.92;1697672;83;21005;-59
2022/03/14 09:46:50;;;;;;;8.07;6.10;;;;;;;18.47;22.48;101683.11;1665925;86;21256;-60
2022/03/14 09:49:17;;;;;;;12.93;6.13;;;;;;;18.84;21.99;101688.88;1695700;84;21547;-61
2022/03/14 09:51:45;;;;;;;11.33;5.63;;;;;;;19.11;21.86;101677.80;1666211;85;21043;-62
2022/03/14 09:54:13;;;;;;;8.00;5.23;;;;;;;18.84;21.74;101669.58;1696674;82;21901;-61
2022/03/14 09:56:43;;;;;;;7.60;5.50;;;;;;;18.15;22.03;101676.75;1665715;85;21986;-61
2022/03/14 09:59:12;;;;;;;7.53;5.20;;;;;;;17.99;22.26;101669.16;1696912;82;21519;-59
2022/03/14 10:01:39;;;;;;;8.73;6.07;;;;;;;18.22;22.03;101682.86;1667546;84;22236;-62
2022/03/14 10:04:08;;;;;;;6.50;4.87;;;;;;;17.91;22.41;101678.57;1686361;81;21764;-59
2022/03/14 10:06:38;;;;;;;7.47;5.17;;;;;;;17.75;22.38;101666.02;1658545;84;21729;-60
2022/03/14 10:09:06;;;;;;;8.83;5.50;;;;;;;17.44;22.70;101665.63;1692648;84;21699;-57
2022/03/14 10:11:33;;;;;;;8.70;5.03;;;;;;;17.18;23.36;101663.13;1664213;84;21544;-61
2022/03/14 10:14:02;;;;;;;8.47;4.70;;;;;;;17.46;23.02;101667.55;1692471;84;21560;-58
2022/03/14 10:16:30;;;;;;;8.27;4.80;;;;;;;17.45;22.80;101658.84;1638708;86;21377;-64
2022/03/14 10:19:07;;;;;;;7.40;4.80;;;;;;;17.45;22.83;101656.70;1692498;84;21429;-58
2022/03/14 10:21:38;;;;;;;7.87;5.20;;;;;;;17.09;23.27;101661.66;1663104;84;21467;-58
2022/03/14 10:24:11;;;;;;;6.77;4.80;;;;;;;17.08;23.50;101653.92;1692832;84;21440;-58
2022/03/14 10:26:42;;;;;;;8.30;5.77;;;;;;;17.13;23.90;101654.19;1662720;86;21265;-57
2022/03/14 10:29:11;;;;;;;8.23;5.60;;;;;;;17.02;23.78;101643.16;1692517;84;21250;-58
2022/03/14 10:31:42;;;;;;;6.30;4.70;;;;;;;16.95;23.88;101648.88;1663173;84;21344;-58
2022/03/14 10:34:16;;;;;;;8.70;5.00;;;;;;;16.83;24.23;101649.09;1689801;83;21667;-57
2022/03/14 10:36:54;;;;;;;7.80;5.43;;;;;;;16.80;24.38;101653.92;1661166;84;21333;-57
2022/03/14 10:39:31;;;;;;;8.07;5.03;;;;;;;16.65;24.45;101639.48;1687425;84;21556;-58
2022/03/14 10:42:11;;;;;;;8.10;4.93;;;;;;;16.34;24.81;101651.64;1662235;85;21205;-60
2022/03/14 10:44:41;;;;;;;;;;;;;;;16.19;24.82;101646.42;1695646;84;21791;-56
2022/03/14 10:47:11;;;;;;;7.33;4.93;;;;;;;15.86;25.29;101646.84;1663758;84;20152;-57
2022/03/14 10:49:40;;;;;;;8.45;5.53;;;;;;;15.47;25.56;101639.23;1693243;83;21203;-56
2022/03/14 10:52:10;;;;;;;10.40;5.37;;;;;;;15.49;26.01;101641.16;1663332;84;21026;-57
2022/03/14 10:54:38;;;;;;;8.30;5.53;;;;;;;15.18;26.42;101639.52;1688444;83;21400;-61
2022/03/14 10:57:15;;;;;;;9.03;5.30;;;;;;;14.95;26.95;101638.25;1658545;84;21902;-59
2022/03/14 10:59:50;;;;;;;8.63;5.70;;;;;;;14.86;27.21;101635.89;1689061;83;21360;-58
2022/03/14 11:02:22;;;;;;;7.90;5.30;;;;;;;14.98;27.25;101637.91;1662400;84;21266;-57
2022/03/14 11:04:51;;;;;;;7.90;5.90;;;;;;;14.83;27.69;101636.55;1714817;83;21635;-58
2022/03/14 11:07:26;;;;;;;7.17;4.90;;;;;;;15.12;27.28;101620.55;1686764;83;21197;-61
2022/03/14 11:09:57;;;;;;;9.77;6.53;;;;;;;15.18;27.38;101622.44;1669529;85;21560;-59
2022/03/14 11:12:27;;;;;;;7.30;5.25;;;;;;;15.40;27.21;101618.61;1717845;81;21168;-60
2022/03/14 11:15:06;;;;;;;7.83;5.50;;;;;;;15.33;27.14;101618.02;1686306;84;22440;-59
2022/03/14 11:17:36;;;;;;;8.67;5.30;;;;;;;15.51;27.18;101615.53;1719607;81;21413;-57
2022/03/14 11:20:04;;;;;;;11.63;6.03;;;;;;;15.30;27.27;101609.67;1718833;81;21215;-58
2022/03/14 11:22:34;;;;;;;8.93;5.57;;;;;;;15.16;27.60;101611.31;1684005;83;21121;-57
2022/03/14 11:25:02;;;;;;;9.27;5.03;;;;;;;14.71;27.79;101613.05;1678372;83;21345;-56